createdAt,value
2019-03-22T00:01:28.051Z,1.67
2019-03-22T00:03:56.554Z,1.00
2019-03-22T00:06:25.016Z,1.05
2019-03-22T00:08:53.464Z,1.40
2019-03-22T00:11:21.956Z,1.40
2019-03-22T00:13:50.341Z,2.00
2019-03-22T00:16:18.793Z,2.12
2019-03-22T00:18:47.285Z,2.10
2019-03-22T00:21:15.732Z,1.57
2019-03-22T00:23:44.180Z,1.90
2019-03-22T00:26:12.679Z,2.20
2019-03-22T00:28:41.144Z,1.55
2019-03-22T00:31:09.544Z,1.67
2019-03-22T00:33:38.051Z,2.72
2019-03-22T00:36:06.507Z,1.70
2019-03-22T00:38:34.980Z,1.82
2019-03-22T00:41:03.435Z,1.55
2019-03-22T00:43:31.844Z,1.30
2019-03-22T00:46:00.548Z,1.55
2019-03-22T00:48:28.947Z,1.60
2019-03-22T00:50:57.397Z,1.62
2019-03-22T00:53:25.854Z,1.37
2019-03-22T00:55:54.357Z,1.30
2019-03-22T00:58:22.820Z,1.70
2019-03-22T01:00:52.452Z,1.57
2019-03-22T01:03:21.071Z,1.62
2019-03-22T01:05:49.549Z,2.90
2019-03-22T01:08:17.908Z,1.90
2019-03-22T01:10:46.336Z,2.20
2019-03-22T01:13:14.808Z,1.30
2019-03-22T01:15:43.288Z,1.70
2019-03-22T01:18:11.879Z,2.35
2019-03-22T01:20:40.436Z,1.55
2019-03-22T01:23:08.902Z,1.80
2019-03-22T01:25:37.385Z,1.65
2019-03-22T01:28:05.827Z,1.60
2019-03-22T01:30:34.293Z,1.20
2019-03-22T01:33:02.774Z,1.32
2019-03-22T01:35:31.254Z,1.42
2019-03-22T01:37:59.740Z,2.10
2019-03-22T01:40:28.231Z,1.87
2019-03-22T01:42:56.783Z,2.10
2019-03-22T01:45:25.360Z,2.10
2019-03-22T01:47:53.737Z,2.20
2019-03-22T01:50:22.215Z,1.70
2019-03-22T01:52:50.701Z,1.30
2019-03-22T01:55:19.164Z,1.45
2019-03-22T01:57:53.430Z,1.60
2019-03-22T02:00:18.283Z,1.30
2019-03-22T02:02:46.741Z,1.90
2019-03-22T02:05:15.303Z,1.80
2019-03-22T02:07:44.005Z,2.42
2019-03-22T02:10:13.028Z,1.60
2019-03-22T02:12:41.497Z,2.05
2019-03-22T02:15:13.181Z,1.92
2019-03-22T02:17:41.757Z,1.80
2019-03-22T02:20:11.017Z,2.77
2019-03-22T02:22:42.720Z,2.17
2019-03-22T02:25:11.180Z,2.55
2019-03-22T02:27:39.662Z,2.70
2019-03-22T02:30:10.182Z,2.20
2019-03-22T02:32:38.641Z,3.42
2019-03-22T02:35:07.398Z,2.92
2019-03-22T02:37:35.890Z,3.15
2019-03-22T02:40:08.170Z,3.37
2019-03-22T02:42:36.607Z,2.50
2019-03-22T02:45:06.693Z,3.00
2019-03-22T02:47:35.154Z,3.10
2019-03-22T02:50:17.241Z,3.22
2019-03-22T02:52:35.159Z,3.58
2019-03-22T02:55:04.322Z,3.52
2019-03-22T02:57:32.773Z,3.27
2019-03-22T03:00:01.617Z,3.12
2019-03-22T03:02:30.052Z,2.85
2019-03-22T03:04:58.517Z,2.98
2019-03-22T03:07:26.923Z,3.62
2019-03-22T03:09:55.336Z,5.50
2019-03-22T03:12:23.796Z,2.62
2019-03-22T03:14:52.360Z,4.30
2019-03-22T03:17:23.124Z,2.47
2019-03-22T03:19:52.771Z,2.95
2019-03-22T03:22:21.337Z,2.22
2019-03-22T03:24:49.816Z,2.83
2019-03-22T03:27:18.249Z,2.52
2019-03-22T03:29:46.668Z,3.40
2019-03-22T03:32:15.129Z,3.50
2019-03-22T03:34:43.591Z,3.70
2019-03-22T03:37:12.079Z,2.90
2019-03-22T03:39:40.538Z,3.90
2019-03-22T03:42:08.988Z,3.65
2019-03-22T03:44:37.491Z,3.87
2019-03-22T03:47:05.940Z,2.92
2019-03-22T03:49:34.398Z,3.80
2019-03-22T03:52:02.968Z,3.80
2019-03-22T03:54:32.161Z,3.10
2019-03-22T03:57:00.663Z,3.47
2019-03-22T03:59:29.142Z,4.62
2019-03-22T04:01:57.626Z,3.37
2019-03-22T04:04:26.010Z,3.75
2019-03-22T04:06:54.507Z,3.75
2019-03-22T04:09:23.074Z,3.17
2019-03-22T04:11:51.530Z,3.10
2019-03-22T04:14:20.061Z,3.67
2019-03-22T04:16:48.441Z,2.80
2019-03-22T04:19:17.015Z,3.55
2019-03-22T04:21:45.637Z,3.70
2019-03-22T04:24:14.017Z,2.72
2019-03-22T04:26:42.482Z,3.12
2019-03-22T04:29:11.011Z,2.58
2019-03-22T04:31:39.471Z,3.05
2019-03-22T04:34:07.939Z,2.45
2019-03-22T04:36:36.370Z,2.65
2019-03-22T04:39:06.229Z,2.17
2019-03-22T04:41:34.698Z,2.27
2019-03-22T04:44:03.195Z,1.90
2019-03-22T04:46:31.764Z,2.25
2019-03-22T04:49:00.621Z,2.08
2019-03-22T04:51:29.909Z,2.50
2019-03-22T04:53:59.276Z,2.85
2019-03-22T04:56:29.106Z,2.52
2019-03-22T04:58:57.908Z,2.30
2019-03-22T05:01:27.863Z,2.62
2019-03-22T05:03:59.041Z,2.15
2019-03-22T05:06:27.429Z,1.57
2019-03-22T05:08:56.848Z,1.65
2019-03-22T05:11:25.317Z,1.47
2019-03-22T05:13:55.035Z,1.50
2019-03-22T05:16:23.485Z,1.00
2019-03-22T05:18:52.644Z,1.12
2019-03-22T05:21:22.603Z,1.15
2019-03-22T05:23:52.060Z,1.27
2019-03-22T05:26:21.022Z,1.00
2019-03-22T05:28:50.435Z,1.17
2019-03-22T05:31:23.331Z,1.20
2019-03-22T05:33:51.788Z,1.10
2019-03-22T05:36:20.661Z,1.00
2019-03-22T05:38:49.120Z,0.88
2019-03-22T05:41:17.578Z,1.30
2019-03-22T05:43:46.121Z,1.00
2019-03-22T05:46:14.578Z,1.00
2019-03-22T05:48:43.036Z,1.00
2019-03-22T05:51:11.517Z,1.00
2019-03-22T05:53:39.921Z,0.90
2019-03-22T05:56:08.378Z,1.32
2019-03-22T05:58:36.860Z,1.15
2019-03-22T06:01:05.399Z,0.80
2019-03-22T06:03:33.786Z,1.02
2019-03-22T06:06:02.275Z,1.10
2019-03-22T06:08:30.768Z,1.00
2019-03-22T06:10:59.192Z,1.15
2019-03-22T06:13:27.671Z,1.17
2019-03-22T06:15:56.179Z,1.55
2019-03-22T06:18:24.537Z,1.20
2019-03-22T06:20:53.023Z,1.20
2019-03-22T06:23:21.469Z,1.02
2019-03-22T06:25:49.925Z,1.10
2019-03-22T06:28:18.413Z,1.27
2019-03-22T06:30:46.895Z,1.00
2019-03-22T06:33:15.556Z,1.10
2019-03-22T06:35:44.116Z,1.47
2019-03-22T06:38:12.633Z,1.27
2019-03-22T06:40:41.105Z,1.35
2019-03-22T06:43:09.578Z,1.37
2019-03-22T06:45:38.052Z,1.30
2019-03-22T06:48:06.508Z,1.90
2019-03-22T06:50:34.991Z,2.00
2019-03-22T06:53:03.459Z,2.10
2019-03-22T06:55:31.897Z,2.00
2019-03-22T06:58:00.446Z,1.98
2019-03-22T07:00:28.865Z,1.50
2019-03-22T07:02:57.335Z,1.12
2019-03-22T07:05:25.825Z,1.20
2019-03-22T07:07:54.298Z,1.57
2019-03-22T07:10:22.753Z,1.52
2019-03-22T07:12:51.247Z,1.60
2019-03-22T07:15:19.628Z,1.05
2019-03-22T07:17:48.084Z,0.98
2019-03-22T07:20:16.699Z,0.98
2019-03-22T07:22:45.176Z,1.20
2019-03-22T07:25:13.622Z,1.17
2019-03-22T07:27:42.157Z,1.22
2019-03-22T07:30:18.460Z,1.25
2019-03-22T07:32:42.101Z,1.00
2019-03-22T07:35:10.617Z,1.67
2019-03-22T07:37:39.069Z,1.10
2019-03-22T07:40:07.937Z,1.00
2019-03-22T07:42:36.435Z,1.67
2019-03-22T07:45:05.797Z,1.57
2019-03-22T07:47:34.262Z,1.40
2019-03-22T07:50:03.353Z,1.70
2019-03-22T07:52:32.190Z,1.27
2019-03-22T07:55:00.701Z,1.50
2019-03-22T07:57:29.204Z,1.05
2019-03-22T07:59:57.661Z,1.25
2019-03-22T08:02:26.202Z,1.00
2019-03-22T08:04:54.698Z,1.45
2019-03-22T08:07:23.135Z,1.27
2019-03-22T08:09:51.637Z,1.45
2019-03-22T08:12:20.095Z,1.85
2019-03-22T08:14:48.563Z,1.10
2019-03-22T08:17:17.126Z,1.27
2019-03-22T08:19:45.576Z,1.05
2019-03-22T08:22:14.152Z,0.75
2019-03-22T08:24:42.756Z,1.35
2019-03-22T08:27:13.660Z,1.17
2019-03-22T08:29:42.241Z,1.42
2019-03-22T08:32:10.680Z,0.93
2019-03-22T08:34:39.216Z,1.10
2019-03-22T08:37:10.701Z,2.40
2019-03-22T08:39:39.201Z,1.37
2019-03-22T08:42:07.742Z,1.20
2019-03-22T08:44:36.293Z,1.62
2019-03-22T08:47:04.807Z,1.72
2019-03-22T08:49:33.259Z,1.42
2019-03-22T08:52:01.908Z,1.35
2019-03-22T08:54:30.387Z,0.88
2019-03-22T08:56:58.851Z,1.45
2019-03-22T08:59:27.329Z,1.32
2019-03-22T09:01:55.963Z,1.22
2019-03-22T09:04:24.413Z,1.52
2019-03-22T09:06:52.904Z,1.57
2019-03-22T09:09:21.331Z,1.40
2019-03-22T09:11:49.837Z,1.52
2019-03-22T09:14:18.343Z,1.90
2019-03-22T09:16:46.785Z,1.57
2019-03-22T09:19:15.236Z,1.98
2019-03-22T09:21:43.702Z,1.87
2019-03-22T09:24:12.155Z,1.20
2019-03-22T09:26:47.511Z,1.70
2019-03-22T09:29:10.746Z,1.57
2019-03-22T09:31:39.206Z,1.87
2019-03-22T09:34:07.691Z,1.50
2019-03-22T09:36:36.165Z,1.30
2019-03-22T09:39:06.156Z,1.20
2019-03-22T09:41:34.620Z,0.93
2019-03-22T09:44:03.622Z,1.07
2019-03-22T09:46:32.020Z,0.70
2019-03-22T09:49:00.513Z,1.30
2019-03-22T09:51:28.981Z,0.88
2019-03-22T09:53:57.450Z,1.42
2019-03-22T09:56:25.914Z,1.40
2019-03-22T09:58:54.431Z,1.40
2019-03-22T10:01:24.181Z,1.30
2019-03-22T10:03:52.976Z,1.10
2019-03-22T10:06:21.455Z,1.17
2019-03-22T10:08:49.933Z,1.60
2019-03-22T10:11:18.388Z,1.40
2019-03-22T10:13:48.359Z,1.20
2019-03-22T10:16:16.936Z,1.00
2019-03-22T10:18:45.469Z,0.90
2019-03-22T10:21:22.277Z,0.98
2019-03-22T10:23:43.909Z,1.00
2019-03-22T10:26:12.517Z,1.15
2019-03-22T10:28:40.956Z,0.95
2019-03-22T10:31:09.467Z,1.00
2019-03-22T10:33:38.026Z,0.85
2019-03-22T10:36:06.464Z,0.80
2019-03-22T10:38:34.949Z,0.72
2019-03-22T10:41:03.473Z,0.95
2019-03-22T10:43:31.883Z,1.02
2019-03-22T10:46:00.315Z,0.78
2019-03-22T10:48:28.819Z,1.00
2019-03-22T10:50:57.275Z,0.93
2019-03-22T10:53:25.760Z,1.00
2019-03-22T10:55:54.192Z,1.00
2019-03-22T10:58:22.580Z,0.90
2019-03-22T11:00:51.040Z,0.80
2019-03-22T11:03:19.529Z,1.10
2019-03-22T11:05:47.996Z,0.80
2019-03-22T11:08:16.447Z,0.80
2019-03-22T11:10:44.859Z,0.75
2019-03-22T11:13:13.386Z,1.10
2019-03-22T11:15:48.459Z,0.95
2019-03-22T11:18:12.349Z,1.00
2019-03-22T11:20:40.791Z,0.90
2019-03-22T11:23:09.247Z,0.93
2019-03-22T11:25:37.732Z,0.82
2019-03-22T11:28:06.206Z,0.88
2019-03-22T11:30:34.665Z,0.80
2019-03-22T11:33:03.082Z,0.80
2019-03-22T11:35:31.544Z,0.70
2019-03-22T11:37:59.942Z,0.72
2019-03-22T11:40:28.450Z,1.00
2019-03-22T11:42:56.889Z,0.88
2019-03-22T11:45:25.429Z,0.80
2019-03-22T11:47:53.929Z,1.02
2019-03-22T11:50:22.479Z,0.90
2019-03-22T11:52:50.946Z,1.12
2019-03-22T11:55:19.439Z,0.90
2019-03-22T11:57:48.078Z,0.98
2019-03-22T12:00:26.156Z,0.95
2019-03-22T12:02:54.654Z,0.90
2019-03-22T12:05:23.233Z,0.82
2019-03-22T12:07:51.812Z,0.93
2019-03-22T12:10:20.984Z,0.70
2019-03-22T12:12:49.582Z,0.75
2019-03-22T12:15:19.053Z,0.72
2019-03-22T12:17:47.509Z,0.82
2019-03-22T12:20:17.537Z,0.93
2019-03-22T12:22:46.020Z,0.80
2019-03-22T12:25:19.010Z,0.78
2019-03-22T12:27:48.479Z,0.98
2019-03-22T12:30:17.578Z,0.85
2019-03-22T12:32:46.143Z,0.60
2019-03-22T12:35:15.069Z,0.75
2019-03-22T12:37:43.491Z,1.00
2019-03-22T12:40:16.217Z,0.80
2019-03-22T12:42:44.652Z,1.00
2019-03-22T12:45:14.535Z,0.90
2019-03-22T12:47:43.047Z,0.70
2019-03-22T12:50:11.612Z,0.78
2019-03-22T12:52:40.067Z,0.82
2019-03-22T12:55:09.461Z,0.80
2019-03-22T12:57:37.921Z,0.70
2019-03-22T13:00:22.359Z,0.80
2019-03-22T13:02:50.816Z,0.82
2019-03-22T13:05:19.470Z,0.90
2019-03-22T13:07:47.948Z,0.70
2019-03-22T13:10:20.472Z,0.80
2019-03-22T13:12:48.928Z,0.90
2019-03-22T13:15:17.511Z,0.90
2019-03-22T13:17:45.978Z,0.80
2019-03-22T13:20:14.928Z,0.90
2019-03-22T13:22:43.415Z,0.80
2019-03-22T13:25:12.959Z,1.37
2019-03-22T13:27:41.612Z,0.90
2019-03-22T13:30:23.761Z,1.27
2019-03-22T13:32:52.426Z,1.47
2019-03-22T13:35:20.990Z,1.37
2019-03-22T13:37:49.458Z,1.35
2019-03-22T13:40:17.844Z,1.15
2019-03-22T13:42:46.316Z,1.17
2019-03-22T13:45:14.811Z,1.00
2019-03-22T13:47:43.272Z,1.00
2019-03-22T13:50:11.875Z,1.00
2019-03-22T13:52:40.967Z,0.95
2019-03-22T13:55:09.645Z,1.05
2019-03-22T13:57:39.572Z,1.12
2019-03-22T14:00:09.886Z,0.90
2019-03-22T14:02:38.342Z,0.90
2019-03-22T14:05:09.442Z,0.72
2019-03-22T14:07:38.014Z,0.90
2019-03-22T14:10:07.264Z,0.50
2019-03-22T14:12:37.287Z,0.70
2019-03-22T14:15:07.012Z,0.45
2019-03-22T14:17:35.512Z,1.10
2019-03-22T14:20:11.327Z,0.80
2019-03-22T14:22:35.709Z,0.85
2019-03-22T14:25:05.176Z,0.80
2019-03-22T14:27:33.635Z,1.30
2019-03-22T14:30:02.109Z,1.30
2019-03-22T14:32:30.572Z,1.22
2019-03-22T14:34:58.960Z,0.93
2019-03-22T14:40:04.698Z,0.30
2019-03-22T14:42:33.171Z,0.40
2019-03-22T14:45:01.657Z,0.45
2019-03-22T14:47:30.132Z,0.60
2019-03-22T14:49:58.589Z,0.50
2019-03-22T14:52:27.039Z,0.45
2019-03-22T14:54:55.739Z,0.62
2019-03-22T14:57:24.117Z,0.80
2019-03-22T14:59:58.892Z,0.30
2019-03-22T15:02:22.662Z,0.47
2019-03-22T15:04:51.134Z,0.50
2019-03-22T15:07:20.205Z,0.68
2019-03-22T15:09:48.786Z,0.85
2019-03-22T15:12:17.223Z,0.72
2019-03-22T15:15:02.633Z,0.80
2019-03-22T15:17:35.426Z,0.77
2019-03-22T15:20:06.281Z,0.70
2019-03-22T15:22:52.693Z,0.68
2019-03-22T15:25:39.143Z,0.57
2019-03-22T15:28:15.205Z,0.70
2019-03-22T15:31:01.837Z,0.65
2019-03-22T15:33:40.863Z,0.65
2019-03-22T15:36:26.271Z,0.40
2019-03-22T15:39:02.744Z,0.20
2019-03-22T15:41:31.396Z,0.50
2019-03-22T15:43:59.851Z,0.30
2019-03-22T15:46:28.268Z,0.40
2019-03-22T15:48:56.747Z,0.30
2019-03-22T15:51:25.200Z,0.40
2019-03-22T15:53:53.586Z,0.40
2019-03-22T15:56:22.073Z,0.40
2019-03-22T15:58:50.533Z,0.37
2019-03-22T16:01:18.985Z,0.50
2019-03-22T16:03:47.469Z,0.50
2019-03-22T16:06:15.947Z,0.50
2019-03-22T16:08:44.409Z,0.82
2019-03-22T16:11:12.895Z,1.20
2019-03-22T16:13:41.373Z,1.07
2019-03-22T16:16:09.834Z,0.78
2019-03-22T16:18:38.326Z,0.85
2019-03-22T16:21:06.799Z,1.10
2019-03-22T16:23:35.274Z,0.80
2019-03-22T16:26:03.765Z,1.10
2019-03-22T16:28:32.237Z,1.00
2019-03-22T16:31:00.696Z,1.10
2019-03-22T16:33:29.227Z,1.65
2019-03-22T16:35:57.791Z,1.20
2019-03-22T16:38:26.214Z,1.20
2019-03-22T16:40:54.703Z,1.17
2019-03-22T16:43:23.172Z,1.32
2019-03-22T16:45:52.656Z,1.12
2019-03-22T16:48:21.292Z,0.98
2019-03-22T16:50:49.766Z,1.35
2019-03-22T16:53:18.230Z,1.27
2019-03-22T16:55:46.700Z,1.20
2019-03-22T16:58:15.173Z,1.40
2019-03-22T17:00:43.634Z,1.30
2019-03-22T17:03:12.165Z,1.20
2019-03-22T17:05:40.712Z,1.30
2019-03-22T17:08:09.183Z,1.50
2019-03-22T17:10:37.716Z,1.60
2019-03-22T17:13:07.619Z,1.20
2019-03-22T17:15:36.101Z,1.67
2019-03-22T17:18:04.993Z,1.95
2019-03-22T17:20:33.451Z,1.57
2019-03-22T17:23:01.955Z,1.72
2019-03-22T17:25:30.396Z,1.80
2019-03-22T17:27:58.856Z,1.30
2019-03-22T17:30:27.320Z,1.80
2019-03-22T17:32:55.864Z,1.40
2019-03-22T17:35:24.326Z,1.37
2019-03-22T17:37:52.713Z,0.85
2019-03-22T17:40:21.591Z,1.02
2019-03-22T17:42:50.082Z,0.90
2019-03-22T17:45:18.541Z,1.17
2019-03-22T17:47:47.019Z,1.12
2019-03-22T17:50:15.681Z,0.82
2019-03-22T17:52:44.143Z,0.90
2019-03-22T17:55:12.926Z,1.85
2019-03-22T17:57:41.391Z,1.77
2019-03-22T18:00:11.430Z,1.50
2019-03-22T18:02:39.928Z,1.80
2019-03-22T18:05:09.191Z,1.20
2019-03-22T18:07:37.655Z,1.92
2019-03-22T18:10:07.608Z,1.60
2019-03-22T18:12:36.169Z,1.12
2019-03-22T18:15:08.398Z,1.82
2019-03-22T18:17:36.901Z,1.55
2019-03-22T18:20:06.550Z,1.30
2019-03-22T18:22:35.023Z,1.70
2019-03-22T18:25:04.306Z,2.00
2019-03-22T18:27:32.760Z,1.70
2019-03-22T18:30:01.377Z,1.67
2019-03-22T18:32:29.874Z,2.27
2019-03-22T18:34:58.330Z,2.10
2019-03-22T18:37:27.841Z,1.90
2019-03-22T18:39:56.337Z,2.25
2019-03-22T18:42:24.777Z,1.85
2019-03-22T18:44:53.279Z,1.67
2019-03-22T18:47:21.720Z,2.27
2019-03-22T18:49:53.094Z,2.77
2019-03-22T18:52:21.573Z,2.30
2019-03-22T18:54:50.043Z,2.67
2019-03-22T18:57:18.501Z,1.90
2019-03-22T18:59:46.895Z,2.72
2019-03-22T19:02:15.370Z,2.80
2019-03-22T19:04:44.379Z,2.35
2019-03-22T19:07:13.076Z,2.77
2019-03-22T19:09:41.583Z,2.05
2019-03-22T19:12:10.019Z,2.62
2019-03-22T19:14:38.478Z,2.35
2019-03-22T19:17:06.894Z,2.65
2019-03-22T19:19:35.347Z,2.25
2019-03-22T19:22:03.816Z,2.37
2019-03-22T19:24:32.309Z,3.00
2019-03-22T19:27:00.692Z,2.85
2019-03-22T19:29:29.171Z,2.45
2019-03-22T19:32:00.311Z,2.35
2019-03-22T19:34:28.836Z,2.30
2019-03-22T19:36:57.312Z,2.70
2019-03-22T19:39:25.792Z,2.40
2019-03-22T19:41:54.250Z,2.58
2019-03-22T19:44:22.712Z,2.58
2019-03-22T19:46:51.195Z,2.65
2019-03-22T19:49:19.653Z,2.45
2019-03-22T19:51:48.121Z,2.52
2019-03-22T19:54:16.599Z,2.22
2019-03-22T19:56:45.055Z,1.90
2019-03-22T19:59:13.517Z,2.95
2019-03-22T20:01:42.035Z,2.40
2019-03-22T20:04:10.497Z,2.62
2019-03-22T20:06:38.957Z,2.17
2019-03-22T20:09:09.031Z,2.22
2019-03-22T20:11:37.527Z,2.20
2019-03-22T20:14:06.045Z,2.35
2019-03-22T20:16:34.543Z,3.35
2019-03-22T20:19:04.474Z,2.60
2019-03-22T20:21:32.939Z,3.15
2019-03-22T20:24:01.358Z,4.10
2019-03-22T20:26:29.842Z,4.12
2019-03-22T20:28:58.276Z,2.25
2019-03-22T20:31:26.791Z,2.58
2019-03-22T20:33:55.239Z,2.75
2019-03-22T20:36:23.693Z,2.70
2019-03-22T20:38:52.193Z,2.45
2019-03-22T20:41:20.642Z,2.20
2019-03-22T20:43:49.105Z,2.00
2019-03-22T20:46:17.583Z,2.15
2019-03-22T20:48:46.040Z,2.22
2019-03-22T20:51:14.502Z,1.20
2019-03-22T20:53:42.986Z,2.83
2019-03-22T20:56:11.498Z,2.37
2019-03-22T20:58:39.960Z,1.12
2019-03-22T21:01:08.465Z,2.15
2019-03-22T21:03:36.926Z,1.80
2019-03-22T21:06:05.448Z,1.60
2019-03-22T21:08:33.952Z,1.30
2019-03-22T21:11:02.414Z,1.42
2019-03-22T21:13:30.803Z,1.45
2019-03-22T21:15:59.279Z,1.65
2019-03-22T21:18:27.739Z,1.17
2019-03-22T21:20:56.190Z,1.52
2019-03-22T21:23:24.685Z,1.47
2019-03-22T21:25:53.127Z,1.77
2019-03-22T21:28:21.620Z,1.42
2019-03-22T21:30:50.119Z,1.72
2019-03-22T21:33:18.560Z,1.20
2019-03-22T21:35:47.022Z,1.55
2019-03-22T21:38:15.798Z,1.30
2019-03-22T21:40:44.360Z,1.05
2019-03-22T21:43:12.739Z,1.60
2019-03-22T21:45:41.224Z,1.92
2019-03-22T21:48:09.672Z,1.62
2019-03-22T21:50:38.132Z,1.52
2019-03-22T21:53:06.963Z,2.27
2019-03-22T21:55:35.412Z,3.17
2019-03-22T21:58:03.872Z,2.83
2019-03-22T22:00:32.343Z,2.27
2019-03-22T22:03:00.800Z,1.82
2019-03-22T22:05:29.258Z,1.70
2019-03-22T22:07:58.720Z,2.25
2019-03-22T22:10:28.092Z,2.10
2019-03-22T22:12:56.546Z,2.30
2019-03-22T22:15:25.029Z,2.27
2019-03-22T22:17:53.488Z,1.65
2019-03-22T22:20:29.002Z,2.58
2019-03-22T22:22:52.106Z,1.42
2019-03-22T22:25:20.573Z,2.02
2019-03-22T22:27:49.131Z,2.77
2019-03-22T22:30:17.626Z,3.22
2019-03-22T22:32:46.148Z,2.30
2019-03-22T22:35:14.616Z,2.95
2019-03-22T22:37:43.249Z,2.62
2019-03-22T22:40:12.450Z,4.28
2019-03-22T22:42:40.903Z,2.45
2019-03-22T22:45:09.913Z,2.00
2019-03-22T22:47:38.309Z,1.80
2019-03-22T22:50:07.673Z,3.67
2019-03-22T22:52:36.167Z,2.58
2019-03-22T22:55:04.922Z,1.90
2019-03-22T22:57:33.406Z,3.20
2019-03-22T23:00:02.205Z,1.60
2019-03-22T23:02:30.680Z,2.22
2019-03-22T23:04:59.144Z,2.02
2019-03-22T23:07:27.620Z,2.30
2019-03-22T23:09:56.011Z,2.70
2019-03-22T23:12:24.495Z,2.05
2019-03-22T23:14:53.024Z,1.77
2019-03-22T23:17:21.472Z,1.60
2019-03-22T23:19:49.934Z,2.62
2019-03-22T23:22:18.425Z,1.87
2019-03-22T23:24:46.879Z,2.10
2019-03-22T23:27:15.350Z,1.55
2019-03-22T23:29:43.937Z,2.35
2019-03-22T23:32:12.395Z,1.75
2019-03-22T23:34:40.906Z,1.45
2019-03-22T23:37:09.380Z,2.08
2019-03-22T23:39:37.849Z,1.47
2019-03-22T23:42:06.350Z,1.80
2019-03-22T23:44:34.837Z,0.98
2019-03-22T23:47:03.287Z,1.70
2019-03-22T23:49:31.845Z,1.57
2019-03-22T23:52:00.278Z,1.55
2019-03-22T23:54:28.695Z,1.25
2019-03-22T23:56:57.161Z,3.17
2019-03-22T23:59:25.653Z,2.42
